createdAt,value
2019-01-31T00:01:12.026Z,59.23
2019-01-31T00:04:15.149Z,69.57
2019-01-31T00:07:16.917Z,67.57
2019-01-31T00:10:22.056Z,66.97
2019-01-31T00:13:41.450Z,66.63
2019-01-31T00:17:00.456Z,60.17
2019-01-31T00:19:35.234Z,59.13
2019-01-31T00:22:56.121Z,63.87
2019-01-31T00:26:03.652Z,59.80
2019-01-31T00:29:07.460Z,60.23
2019-01-31T00:32:14.078Z,57.70
2019-01-31T00:35:26.615Z,59.13
2019-01-31T00:38:56.337Z,66.93
2019-01-31T00:41:49.361Z,68.10
2019-01-31T00:44:39.880Z,57.67
2019-01-31T00:47:39.586Z,62.57
2019-01-31T00:50:22.581Z,62.27
2019-01-31T00:53:25.639Z,56.73
2019-01-31T00:56:23.441Z,67.37
2019-01-31T00:59:12.356Z,68.63
2019-01-31T01:01:50.830Z,66.60
2019-01-31T01:04:58.952Z,69.50
2019-01-31T01:08:08.565Z,77.07
2019-01-31T01:10:58.918Z,69.13
2019-01-31T01:13:59.716Z,88.23
2019-01-31T01:16:41.661Z,111.43
2019-01-31T01:19:50.675Z,104.53
2019-01-31T01:22:50.398Z,111.47
2019-01-31T01:25:57.246Z,121.23
2019-01-31T01:29:08.262Z,110.37
2019-01-31T01:32:32.457Z,103.07
2019-01-31T01:35:32.245Z,116.70
2019-01-31T01:38:27.826Z,99.47
2019-01-31T01:41:30.820Z,125.80
2019-01-31T01:44:35.917Z,64.23
2019-01-31T01:47:13.985Z,143.77
2019-01-31T01:49:56.241Z,161.47
2019-01-31T01:52:49.924Z,158.00
2019-01-31T01:55:54.915Z,160.00
2019-01-31T01:59:04.111Z,218.93
2019-01-31T02:02:05.529Z,220.20
2019-01-31T02:05:02.202Z,180.43
2019-01-31T02:07:51.924Z,207.80
2019-01-31T02:11:05.420Z,111.50
2019-01-31T02:14:24.630Z,160.67
2019-01-31T02:17:05.726Z,137.37
2019-01-31T02:20:29.929Z,154.80
2019-01-31T02:23:35.228Z,173.40
2019-01-31T02:26:53.508Z,183.10
2019-01-31T02:30:03.965Z,142.97
2019-01-31T02:32:57.035Z,192.97
2019-01-31T02:35:54.770Z,191.43
2019-01-31T02:39:13.174Z,150.37
2019-01-31T02:41:59.579Z,157.73
2019-01-31T02:44:59.957Z,162.90
2019-01-31T02:48:00.705Z,178.53
2019-01-31T02:50:58.909Z,144.43
2019-01-31T02:53:45.832Z,162.13
2019-01-31T02:56:52.426Z,161.17
2019-01-31T02:59:57.126Z,189.80
2019-01-31T03:02:40.439Z,193.60
2019-01-31T03:05:53.996Z,194.57
2019-01-31T03:08:39.274Z,169.13
2019-01-31T03:11:19.991Z,136.47
2019-01-31T03:14:10.406Z,159.73
2019-01-31T03:17:20.861Z,187.53
2019-01-31T03:20:46.703Z,175.07
2019-01-31T03:23:52.761Z,218.60
2019-01-31T03:27:21.063Z,193.93
2019-01-31T03:30:26.474Z,187.60
2019-01-31T03:33:39.639Z,155.73
2019-01-31T03:36:22.541Z,163.60
2019-01-31T03:39:12.466Z,149.67
2019-01-31T03:42:12.584Z,170.77
2019-01-31T03:45:16.342Z,157.20
2019-01-31T03:48:11.425Z,180.33
2019-01-31T03:51:13.557Z,190.13
2019-01-31T03:54:34.744Z,165.53
2019-01-31T03:57:43.009Z,183.23
2019-01-31T04:00:39.000Z,174.23
2019-01-31T04:03:40.834Z,168.37
2019-01-31T04:06:25.682Z,153.47
2019-01-31T04:08:54.901Z,158.73
2019-01-31T04:11:24.109Z,180.77
2019-01-31T04:13:53.261Z,187.17
2019-01-31T04:16:22.468Z,184.83
2019-01-31T04:18:51.601Z,185.87
2019-01-31T04:21:20.730Z,201.07
2019-01-31T04:23:49.910Z,184.20
2019-01-31T04:26:19.093Z,187.83
2019-01-31T04:28:48.337Z,185.23
2019-01-31T04:31:17.721Z,204.17
2019-01-31T04:33:48.177Z,212.07
2019-01-31T04:36:17.366Z,223.70
2019-01-31T04:38:46.598Z,231.97
2019-01-31T04:41:15.724Z,213.77
2019-01-31T04:43:44.832Z,234.23
2019-01-31T04:46:13.970Z,276.37
2019-01-31T04:48:43.132Z,198.10
2019-01-31T04:51:13.292Z,276.63
2019-01-31T04:53:42.606Z,240.07
2019-01-31T04:56:11.744Z,206.73
2019-01-31T04:58:40.798Z,177.93
2019-01-31T05:01:10.074Z,181.07
2019-01-31T05:03:39.116Z,222.50
2019-01-31T05:06:08.349Z,186.60
2019-01-31T05:08:37.723Z,254.23
2019-01-31T05:11:06.851Z,149.97
2019-01-31T05:13:36.007Z,153.37
2019-01-31T05:16:05.242Z,142.13
2019-01-31T05:18:34.305Z,140.77
2019-01-31T05:21:03.829Z,131.17
2019-01-31T05:23:33.201Z,127.93
2019-01-31T05:26:02.407Z,126.57
2019-01-31T05:28:31.614Z,130.30
2019-01-31T05:31:00.793Z,117.60
2019-01-31T05:33:29.902Z,95.37
2019-01-31T05:35:59.044Z,100.77
2019-01-31T05:38:28.117Z,96.83
2019-01-31T05:40:57.218Z,94.17
2019-01-31T05:43:26.346Z,77.47
2019-01-31T05:45:55.578Z,64.17
2019-01-31T05:48:24.718Z,89.97
2019-01-31T05:50:53.776Z,102.60
2019-01-31T05:53:23.067Z,64.80
2019-01-31T05:55:52.317Z,75.83
2019-01-31T05:58:21.454Z,75.23
2019-01-31T06:00:50.681Z,60.67
2019-01-31T06:03:19.793Z,78.67
2019-01-31T06:05:48.965Z,72.07
2019-01-31T06:08:18.133Z,90.87
2019-01-31T06:10:47.238Z,78.40
2019-01-31T06:13:16.439Z,72.57
2019-01-31T06:15:45.801Z,46.93
2019-01-31T06:18:14.964Z,82.33
2019-01-31T06:20:44.169Z,69.00
2019-01-31T06:23:13.583Z,66.83
2019-01-31T06:25:42.626Z,72.83
2019-01-31T06:28:13.033Z,65.37
2019-01-31T06:30:42.368Z,51.97
2019-01-31T06:33:11.485Z,61.17
2019-01-31T06:35:40.597Z,60.07
2019-01-31T06:38:09.693Z,55.30
2019-01-31T06:40:38.790Z,71.57
2019-01-31T06:43:07.896Z,65.73
2019-01-31T06:45:37.186Z,70.53
2019-01-31T06:48:06.423Z,62.23
2019-01-31T06:50:35.661Z,83.40
2019-01-31T06:53:04.980Z,73.53
2019-01-31T06:55:34.114Z,101.23
2019-01-31T06:58:03.336Z,76.93
2019-01-31T07:00:32.565Z,100.30
2019-01-31T07:03:01.672Z,65.87
2019-01-31T07:05:30.895Z,72.63
2019-01-31T07:08:00.024Z,47.63
2019-01-31T07:10:29.242Z,62.40
2019-01-31T07:12:58.386Z,76.47
2019-01-31T07:15:27.672Z,92.27
2019-01-31T07:17:56.734Z,89.70
2019-01-31T07:20:25.956Z,97.17
2019-01-31T07:22:55.103Z,89.57
2019-01-31T07:25:25.462Z,108.23
2019-01-31T07:27:54.564Z,89.93
2019-01-31T07:30:26.391Z,103.77
2019-01-31T07:32:54.483Z,85.13
2019-01-31T07:35:23.670Z,117.63
2019-01-31T07:37:53.218Z,87.63
2019-01-31T07:40:22.509Z,109.43
2019-01-31T07:42:51.660Z,89.17
2019-01-31T07:45:31.118Z,107.50
2019-01-31T07:48:00.233Z,65.60
2019-01-31T07:50:29.432Z,77.33
2019-01-31T07:52:58.547Z,66.70
2019-01-31T07:55:27.745Z,81.07
2019-01-31T07:57:56.896Z,65.27
2019-01-31T08:00:26.152Z,106.43
2019-01-31T08:02:55.337Z,90.63
2019-01-31T08:05:24.592Z,65.93
2019-01-31T08:07:54.626Z,58.13
2019-01-31T08:10:43.233Z,67.63
2019-01-31T08:13:12.409Z,74.53
2019-01-31T08:15:41.649Z,59.43
2019-01-31T08:18:11.177Z,86.17
2019-01-31T08:20:40.766Z,72.50
2019-01-31T08:23:09.873Z,73.13
2019-01-31T08:25:39.057Z,93.27
2019-01-31T08:28:08.228Z,89.00
2019-01-31T08:30:39.502Z,79.07
2019-01-31T08:33:08.689Z,90.73
2019-01-31T08:35:37.897Z,107.10
2019-01-31T08:38:07.065Z,87.03
2019-01-31T08:40:36.125Z,95.73
2019-01-31T08:43:05.333Z,66.27
2019-01-31T08:45:34.473Z,51.53
2019-01-31T08:48:03.753Z,53.97
2019-01-31T08:50:32.933Z,53.20
2019-01-31T08:53:02.151Z,49.90
2019-01-31T08:55:31.394Z,69.60
2019-01-31T08:58:00.544Z,66.27
2019-01-31T09:00:30.375Z,59.07
2019-01-31T09:03:00.271Z,73.10
2019-01-31T09:05:29.409Z,114.70
2019-01-31T09:07:58.844Z,64.87
2019-01-31T09:10:30.270Z,63.60
2019-01-31T09:13:01.048Z,58.07
2019-01-31T09:15:30.338Z,73.13
2019-01-31T09:17:59.489Z,51.47
2019-01-31T09:20:54.213Z,48.90
2019-01-31T09:23:50.006Z,44.40
2019-01-31T09:26:35.312Z,70.40
2019-01-31T09:29:18.725Z,45.73
2019-01-31T09:32:12.665Z,59.43
2019-01-31T09:35:11.393Z,53.43
2019-01-31T09:38:34.178Z,55.40
2019-01-31T09:41:39.566Z,58.50
2019-01-31T09:44:52.182Z,47.60
2019-01-31T09:47:34.384Z,38.50
2019-01-31T09:50:44.131Z,41.60
2019-01-31T09:53:38.601Z,41.97
2019-01-31T09:56:51.997Z,45.23
2019-01-31T09:59:42.149Z,47.53
2019-01-31T10:03:01.956Z,42.27
2019-01-31T10:06:03.341Z,40.40
2019-01-31T10:09:05.467Z,50.33
2019-01-31T10:11:55.366Z,47.83
2019-01-31T10:14:55.993Z,55.23
2019-01-31T10:18:11.825Z,46.17
2019-01-31T10:21:01.137Z,50.50
2019-01-31T10:23:52.092Z,52.43
2019-01-31T10:26:37.830Z,53.83
2019-01-31T10:29:40.779Z,58.93
2019-01-31T10:32:57.094Z,54.87
2019-01-31T10:35:59.054Z,54.40
2019-01-31T10:38:40.597Z,49.50
2019-01-31T10:41:57.142Z,60.07
2019-01-31T10:45:10.547Z,54.30
2019-01-31T10:48:10.790Z,52.97
2019-01-31T10:51:08.286Z,53.70
2019-01-31T10:54:06.474Z,54.00
2019-01-31T10:57:15.498Z,47.37
2019-01-31T11:00:33.957Z,52.63
2019-01-31T11:03:31.082Z,54.93
2019-01-31T11:06:32.818Z,57.67
2019-01-31T11:09:33.345Z,59.57
2019-01-31T11:12:28.314Z,65.07
2019-01-31T11:15:25.793Z,52.87
2019-01-31T11:18:35.093Z,45.37
2019-01-31T11:21:38.173Z,59.60
2019-01-31T11:24:42.395Z,60.43
2019-01-31T11:27:56.593Z,58.43
2019-01-31T11:30:47.859Z,55.00
2019-01-31T11:34:10.490Z,54.37
2019-01-31T11:37:35.883Z,46.77
2019-01-31T11:40:26.641Z,50.63
2019-01-31T11:43:33.881Z,44.07
2019-01-31T11:46:32.893Z,40.87
2019-01-31T11:49:17.097Z,38.47
2019-01-31T11:52:38.586Z,38.27
2019-01-31T11:55:25.806Z,39.37
2019-01-31T11:58:41.111Z,45.53
2019-01-31T12:01:10.496Z,42.53
2019-01-31T12:03:39.656Z,48.57
2019-01-31T12:06:08.938Z,47.03
2019-01-31T12:08:38.071Z,46.00
2019-01-31T12:11:07.177Z,56.00
2019-01-31T12:13:36.312Z,48.47
2019-01-31T12:16:05.987Z,49.07
2019-01-31T12:18:35.073Z,54.57
2019-01-31T12:21:04.214Z,62.63
2019-01-31T12:23:33.337Z,56.27
2019-01-31T12:26:02.457Z,42.90
2019-01-31T12:28:31.573Z,51.80
2019-01-31T12:31:00.794Z,61.30
2019-01-31T12:33:31.017Z,60.93
2019-01-31T12:36:00.281Z,67.13
2019-01-31T12:38:36.434Z,60.63
2019-01-31T12:41:00.213Z,64.90
2019-01-31T12:43:35.212Z,70.73
2019-01-31T12:46:00.335Z,77.53
2019-01-31T12:48:29.553Z,67.30
2019-01-31T12:50:58.738Z,59.43
2019-01-31T12:53:28.222Z,64.83
2019-01-31T12:55:57.268Z,64.03
2019-01-31T12:58:33.256Z,51.93
2019-01-31T13:00:57.261Z,47.10
2019-01-31T13:03:26.421Z,49.70
2019-01-31T13:05:55.605Z,50.53
2019-01-31T13:08:24.749Z,58.20
2019-01-31T13:10:53.792Z,59.37
2019-01-31T13:13:22.893Z,57.67
2019-01-31T13:15:52.069Z,58.37
2019-01-31T13:18:21.151Z,61.77
2019-01-31T13:20:50.304Z,62.27
2019-01-31T13:23:19.713Z,100.70
2019-01-31T13:25:48.824Z,83.03
2019-01-31T13:28:18.009Z,66.17
2019-01-31T13:30:47.351Z,64.50
2019-01-31T13:33:16.448Z,55.00
2019-01-31T13:35:45.643Z,58.47
2019-01-31T13:38:14.735Z,75.67
2019-01-31T13:40:43.848Z,93.83
2019-01-31T13:43:13.044Z,71.30
2019-01-31T13:45:42.261Z,59.03
2019-01-31T13:48:13.427Z,52.40
2019-01-31T13:50:42.573Z,62.20
2019-01-31T13:53:11.876Z,64.60
2019-01-31T13:55:40.917Z,73.83
2019-01-31T13:58:10.432Z,80.90
2019-01-31T14:00:40.076Z,79.87
2019-01-31T14:03:09.254Z,84.00
2019-01-31T14:05:38.445Z,85.30
2019-01-31T14:08:08.043Z,84.90
2019-01-31T14:10:37.546Z,85.47
2019-01-31T14:13:06.824Z,81.40
2019-01-31T14:15:36.414Z,89.90
2019-01-31T14:18:05.543Z,86.27
2019-01-31T14:20:34.645Z,84.57
2019-01-31T14:23:03.799Z,84.83
2019-01-31T14:25:32.929Z,69.37
2019-01-31T14:28:02.141Z,72.87
2019-01-31T14:30:33.048Z,67.17
2019-01-31T14:33:02.666Z,64.67
2019-01-31T14:35:32.113Z,68.33
2019-01-31T14:38:01.297Z,64.97
2019-01-31T14:40:30.469Z,66.53
2019-01-31T14:42:59.556Z,70.07
2019-01-31T14:45:30.074Z,69.43
2019-01-31T14:47:59.408Z,69.00
2019-01-31T14:50:30.658Z,69.57
2019-01-31T14:52:59.774Z,73.90
2019-01-31T14:55:28.895Z,77.40
2019-01-31T14:57:58.030Z,64.47
2019-01-31T15:00:29.028Z,67.20
2019-01-31T15:02:58.145Z,64.00
2019-01-31T15:05:27.283Z,70.67
2019-01-31T15:07:56.405Z,74.27
2019-01-31T15:10:27.266Z,71.47
2019-01-31T15:12:56.603Z,73.40
2019-01-31T15:15:25.704Z,69.83
2019-01-31T15:17:54.828Z,69.40
2019-01-31T15:20:38.223Z,68.57
2019-01-31T15:23:05.789Z,61.97
2019-01-31T15:25:34.851Z,68.53
2019-01-31T15:28:04.231Z,67.83
2019-01-31T15:30:34.457Z,62.50
2019-01-31T15:33:05.894Z,57.57
2019-01-31T15:35:35.256Z,59.70
2019-01-31T15:38:04.453Z,57.67
2019-01-31T15:40:35.984Z,62.73
2019-01-31T15:43:05.165Z,54.20
2019-01-31T15:45:34.297Z,50.73
2019-01-31T15:48:03.454Z,55.03
2019-01-31T15:50:33.134Z,57.07
2019-01-31T15:53:02.255Z,58.60
2019-01-31T15:55:33.166Z,50.50
2019-01-31T15:58:02.236Z,52.07
2019-01-31T16:00:44.947Z,58.97
2019-01-31T16:03:16.423Z,45.77
2019-01-31T16:05:45.508Z,53.63
2019-01-31T16:08:15.157Z,56.03
2019-01-31T16:10:44.466Z,52.90
2019-01-31T16:13:13.508Z,53.50
2019-01-31T16:15:44.198Z,51.70
2019-01-31T16:18:13.661Z,49.97
2019-01-31T16:20:42.837Z,51.30
2019-01-31T16:23:13.113Z,50.60
2019-01-31T16:25:42.181Z,50.80
2019-01-31T16:28:11.365Z,56.70
2019-01-31T16:30:40.481Z,52.60
2019-01-31T16:33:09.533Z,46.80
2019-01-31T16:35:40.193Z,50.03
2019-01-31T16:40:40.269Z,55.50
2019-01-31T16:43:09.575Z,53.60
2019-01-31T16:45:38.836Z,51.10
2019-01-31T16:48:08.260Z,52.33
2019-01-31T16:50:37.431Z,54.33
2019-01-31T16:53:08.125Z,50.83
2019-01-31T16:55:37.522Z,52.33
2019-01-31T16:58:07.563Z,51.57
2019-01-31T17:00:36.825Z,58.13
2019-01-31T17:03:07.358Z,53.80
2019-01-31T17:05:36.653Z,53.70
2019-01-31T17:08:06.796Z,64.47
2019-01-31T17:10:36.470Z,61.43
2019-01-31T17:13:06.286Z,64.97
2019-01-31T17:15:35.602Z,62.00
2019-01-31T17:18:06.266Z,65.20
2019-01-31T17:20:40.799Z,70.97
2019-01-31T17:23:10.005Z,67.23
2019-01-31T17:25:39.196Z,73.57
2019-01-31T17:28:08.298Z,65.63
2019-01-31T17:30:37.450Z,70.70
2019-01-31T17:33:06.508Z,65.80
2019-01-31T17:35:35.787Z,61.93
2019-01-31T17:38:04.854Z,67.53
2019-01-31T17:40:36.397Z,71.33
2019-01-31T17:43:05.975Z,69.03
2019-01-31T17:45:35.180Z,70.10
2019-01-31T17:48:08.950Z,69.87
2019-01-31T17:50:41.839Z,67.63
2019-01-31T17:53:10.593Z,68.47
2019-01-31T17:55:41.543Z,60.77
2019-01-31T17:58:10.544Z,66.70
2019-01-31T18:00:50.275Z,70.07
2019-01-31T18:03:19.635Z,66.87
2019-01-31T18:05:48.730Z,68.67
2019-01-31T18:08:17.840Z,77.37
2019-01-31T18:10:46.929Z,73.80
2019-01-31T18:13:15.992Z,71.20
2019-01-31T18:15:45.042Z,70.83
2019-01-31T18:18:14.316Z,76.37
2019-01-31T18:20:43.417Z,72.37
2019-01-31T18:23:14.998Z,65.67
2019-01-31T18:25:44.341Z,77.83
2019-01-31T18:28:13.824Z,75.07
2019-01-31T18:30:42.857Z,72.73
2019-01-31T18:33:12.072Z,69.43
2019-01-31T18:35:41.285Z,71.43
2019-01-31T18:38:10.557Z,72.27
2019-01-31T18:40:39.982Z,68.93
2019-01-31T18:43:10.181Z,68.20
2019-01-31T18:45:39.414Z,69.90
2019-01-31T18:48:08.798Z,78.13
2019-01-31T18:50:40.731Z,72.70
2019-01-31T18:53:13.522Z,69.17
2019-01-31T18:55:42.578Z,63.07
2019-01-31T18:58:12.594Z,67.70
2019-01-31T19:00:47.219Z,65.87
2019-01-31T19:03:16.325Z,66.87
2019-01-31T19:05:45.412Z,64.37
2019-01-31T19:08:14.560Z,62.03
2019-01-31T19:10:44.034Z,59.80
2019-01-31T19:13:13.062Z,55.30
2019-01-31T19:15:42.466Z,58.73
2019-01-31T19:18:11.612Z,65.03
2019-01-31T19:20:40.792Z,60.47
2019-01-31T19:23:10.030Z,57.07
2019-01-31T19:25:41.536Z,55.70
2019-01-31T19:28:13.082Z,54.43
2019-01-31T19:30:41.905Z,50.57
2019-01-31T19:33:11.034Z,50.83
2019-01-31T19:35:40.135Z,49.67
2019-01-31T19:38:10.003Z,45.80
2019-01-31T19:40:41.477Z,47.30
2019-01-31T19:43:10.624Z,48.87
2019-01-31T19:45:44.837Z,48.23
2019-01-31T19:48:13.944Z,41.67
2019-01-31T19:50:43.711Z,44.77
2019-01-31T19:53:13.003Z,45.93
2019-01-31T19:55:42.106Z,45.27
2019-01-31T19:58:11.218Z,41.07
2019-01-31T20:00:40.361Z,40.80
2019-01-31T20:03:09.582Z,44.03
2019-01-31T20:05:38.758Z,40.73
2019-01-31T20:08:11.366Z,42.30
2019-01-31T20:10:40.485Z,36.80
2019-01-31T20:13:09.600Z,43.27
2019-01-31T20:15:38.853Z,38.10
2019-01-31T20:18:08.446Z,37.00
2019-01-31T20:20:37.572Z,37.67
2019-01-31T20:23:07.281Z,38.77
2019-01-31T20:25:36.329Z,40.00
2019-01-31T20:28:05.481Z,44.17
2019-01-31T20:30:34.759Z,42.07
2019-01-31T20:33:03.938Z,37.00
2019-01-31T20:35:33.176Z,40.87
2019-01-31T20:38:03.255Z,37.07
2019-01-31T20:40:37.450Z,39.60
2019-01-31T20:43:07.481Z,34.53
2019-01-31T20:45:36.741Z,36.87
2019-01-31T20:48:07.528Z,38.23
2019-01-31T20:50:37.801Z,39.73
2019-01-31T20:53:07.115Z,41.67
2019-01-31T20:55:36.319Z,38.27
2019-01-31T20:58:05.889Z,35.63
2019-01-31T21:00:43.269Z,36.93
2019-01-31T21:03:12.629Z,32.97
2019-01-31T21:05:41.876Z,34.47
2019-01-31T21:08:12.212Z,38.20
2019-01-31T21:10:41.395Z,38.73
2019-01-31T21:13:10.415Z,34.70
2019-01-31T21:15:39.609Z,37.37
2019-01-31T21:18:09.256Z,37.97
2019-01-31T21:20:38.441Z,38.43
2019-01-31T21:23:08.077Z,44.20
2019-01-31T21:25:37.357Z,42.73
2019-01-31T21:28:06.601Z,42.70
2019-01-31T21:30:43.058Z,43.20
2019-01-31T21:33:12.165Z,47.10
2019-01-31T21:35:41.278Z,41.60
2019-01-31T21:38:10.701Z,45.23
2019-01-31T21:40:40.369Z,43.53
2019-01-31T21:43:09.549Z,41.47
2019-01-31T21:45:38.912Z,41.47
2019-01-31T21:48:09.623Z,43.23
2019-01-31T21:50:38.756Z,41.93
2019-01-31T21:53:07.881Z,47.07
2019-01-31T21:55:37.003Z,39.73
2019-01-31T21:58:06.444Z,43.90
2019-01-31T22:00:35.794Z,43.17
2019-01-31T22:03:06.143Z,44.10
2019-01-31T22:05:35.249Z,38.80
2019-01-31T22:08:04.406Z,37.43
2019-01-31T22:10:33.541Z,38.67
2019-01-31T22:13:03.134Z,48.43
2019-01-31T22:15:32.996Z,39.13
2019-01-31T22:18:02.206Z,47.70
2019-01-31T22:20:31.293Z,41.27
2019-01-31T22:23:00.461Z,38.00
2019-01-31T22:25:29.583Z,38.27
2019-01-31T22:27:59.606Z,35.20
2019-01-31T22:30:34.342Z,32.53
2019-01-31T22:33:03.559Z,34.03
2019-01-31T22:35:32.734Z,34.93
2019-01-31T22:38:01.870Z,36.10
2019-01-31T22:40:30.926Z,35.00
2019-01-31T22:43:00.039Z,33.33
2019-01-31T22:45:29.435Z,34.40
2019-01-31T22:47:58.528Z,33.23
2019-01-31T22:50:27.745Z,39.00
2019-01-31T22:52:57.120Z,35.90
2019-01-31T22:55:26.438Z,33.23
2019-01-31T22:57:55.535Z,38.60
2019-01-31T23:01:21.955Z,35.37
2019-01-31T23:03:50.972Z,39.30
2019-01-31T23:06:20.092Z,39.77
2019-01-31T23:08:49.378Z,41.80
2019-01-31T23:11:18.435Z,40.97
2019-01-31T23:13:47.556Z,41.93
2019-01-31T23:16:16.777Z,39.03
2019-01-31T23:18:45.964Z,42.17
2019-01-31T23:21:15.083Z,41.37
2019-01-31T23:23:44.417Z,39.53
2019-01-31T23:26:13.570Z,34.43
2019-01-31T23:28:42.698Z,40.83
2019-01-31T23:31:11.896Z,42.90
2019-01-31T23:33:41.316Z,42.00
2019-01-31T23:36:10.431Z,39.40
2019-01-31T23:38:39.804Z,42.30
2019-01-31T23:41:08.991Z,43.60
2019-01-31T23:43:38.153Z,40.87
2019-01-31T23:46:07.213Z,47.03
2019-01-31T23:48:36.346Z,41.20
2019-01-31T23:51:05.789Z,44.93
2019-01-31T23:53:34.961Z,44.77
2019-01-31T23:56:04.072Z,49.53
2019-01-31T23:58:33.240Z,46.50
